createdAt,value
2022-09-26T00:01:17.056Z,7.32
2022-09-26T00:03:46.153Z,7.30
2022-09-26T00:06:17.874Z,7.34
2022-09-26T00:08:46.807Z,7.31
2022-09-26T00:11:16.878Z,7.35
2022-09-26T00:13:45.617Z,7.39
2022-09-26T00:16:15.175Z,7.38
2022-09-26T00:18:43.208Z,7.36
2022-09-26T00:21:12.831Z,7.30
2022-09-26T00:23:42.905Z,7.35
2022-09-26T00:26:12.160Z,7.36
2022-09-26T00:28:40.587Z,7.36
2022-09-26T00:31:10.554Z,7.39
2022-09-26T00:33:39.306Z,7.32
2022-09-26T00:36:08.305Z,7.26
2022-09-26T00:38:36.688Z,7.33
2022-09-26T00:41:06.861Z,7.30
2022-09-26T00:43:36.641Z,7.19
2022-09-26T00:46:08.480Z,7.22
2022-09-26T00:48:38.622Z,7.18
2022-09-26T00:51:07.440Z,7.24
2022-09-26T00:53:40.038Z,7.21
2022-09-26T00:56:15.997Z,7.19
2022-09-26T00:58:49.005Z,7.24
2022-09-26T01:01:18.928Z,7.23
2022-09-26T01:03:50.161Z,7.17
2022-09-26T01:06:19.647Z,7.21
2022-09-26T01:08:53.585Z,7.24
2022-09-26T01:11:23.620Z,7.25
2022-09-26T01:13:53.843Z,7.18
2022-09-26T01:16:21.975Z,7.25
2022-09-26T01:18:51.398Z,7.28
2022-09-26T01:21:48.852Z,7.31
2022-09-26T01:24:40.971Z,7.36
2022-09-26T01:27:26.533Z,7.38
2022-09-26T01:30:09.250Z,7.32
2022-09-26T01:32:55.028Z,7.47
2022-09-26T01:35:37.592Z,7.44
2022-09-26T01:38:16.072Z,7.46
2022-09-26T01:40:50.836Z,7.50
2022-09-26T01:43:26.804Z,7.52
2022-09-26T01:46:04.232Z,7.51
2022-09-26T01:48:36.233Z,7.49
2022-09-26T01:51:11.019Z,7.52
2022-09-26T01:53:44.710Z,7.54
2022-09-26T01:56:17.550Z,7.54
2022-09-26T01:58:50.967Z,7.51
2022-09-26T02:01:24.261Z,7.47
2022-09-26T02:03:55.465Z,7.53
2022-09-26T02:06:26.254Z,7.56
2022-09-26T02:08:58.562Z,7.57
2022-09-26T02:11:28.413Z,7.59
2022-09-26T02:14:02.606Z,7.60
2022-09-26T02:16:39.379Z,7.57
2022-09-26T02:19:14.038Z,7.56
2022-09-26T02:21:43.711Z,7.61
2022-09-26T02:24:11.711Z,7.61
2022-09-26T02:26:42.227Z,7.64
2022-09-26T02:29:10.878Z,7.61
2022-09-26T02:31:48.584Z,7.62
2022-09-26T02:34:16.612Z,7.63
2022-09-26T02:36:46.460Z,7.63
2022-09-26T02:39:14.930Z,7.62
2022-09-26T02:41:50.916Z,7.65
2022-09-26T02:44:34.749Z,7.70
2022-09-26T02:47:40.026Z,7.67
2022-09-26T02:50:20.045Z,7.71
2022-09-26T02:53:01.786Z,7.71
2022-09-26T02:55:37.564Z,7.73
2022-09-26T02:58:13.045Z,7.76
2022-09-26T03:00:53.545Z,7.80
2022-09-26T03:03:31.533Z,7.78
2022-09-26T03:06:01.762Z,7.78
2022-09-26T03:08:34.317Z,7.78
2022-09-26T03:11:08.127Z,7.84
2022-09-26T03:13:38.077Z,7.83
2022-09-26T03:16:08.149Z,7.85
2022-09-26T03:18:45.000Z,7.86
2022-09-26T03:21:14.897Z,7.87
2022-09-26T03:23:43.281Z,7.83
2022-09-26T03:26:14.110Z,7.85
2022-09-26T03:28:42.404Z,7.85
2022-09-26T03:31:10.355Z,7.88
2022-09-26T03:33:40.895Z,7.88
2022-09-26T03:36:09.970Z,7.87
2022-09-26T03:38:37.930Z,7.88
2022-09-26T03:41:07.212Z,7.91
2022-09-26T03:43:35.170Z,7.94
2022-09-26T03:46:04.215Z,7.96
2022-09-26T03:48:32.551Z,7.98
2022-09-26T03:51:04.710Z,7.99
2022-09-26T03:53:33.946Z,8.03
2022-09-26T03:56:06.964Z,8.03
2022-09-26T03:58:35.219Z,8.05
2022-09-26T04:01:08.054Z,8.05
2022-09-26T04:03:37.182Z,8.08
2022-09-26T04:06:08.476Z,8.10
2022-09-26T04:08:37.485Z,8.10
2022-09-26T04:11:07.384Z,8.10
2022-09-26T04:13:53.011Z,8.10
2022-09-26T04:16:22.674Z,8.13
2022-09-26T04:18:51.106Z,8.13
2022-09-26T04:21:20.376Z,8.13
2022-09-26T04:23:49.269Z,8.18
2022-09-26T04:26:23.301Z,8.19
2022-09-26T04:28:54.994Z,8.23
2022-09-26T04:31:23.967Z,8.26
2022-09-26T04:33:54.774Z,8.29
2022-09-26T04:36:24.587Z,8.27
2022-09-26T04:38:52.577Z,8.30
2022-09-26T04:41:22.148Z,8.28
2022-09-26T04:43:50.374Z,8.27
2022-09-26T04:46:24.565Z,8.29
2022-09-26T04:48:57.478Z,8.29
2022-09-26T04:51:28.270Z,8.33
2022-09-26T04:53:56.689Z,8.36
2022-09-26T04:56:26.527Z,8.36
2022-09-26T04:58:56.877Z,8.37
2022-09-26T05:01:25.746Z,8.34
2022-09-26T05:03:56.260Z,8.33
2022-09-26T05:06:24.230Z,8.35
2022-09-26T05:08:53.555Z,8.32
2022-09-26T05:11:22.212Z,8.34
2022-09-26T05:13:53.963Z,8.34
2022-09-26T05:16:22.648Z,8.31
2022-09-26T05:18:51.647Z,8.31
2022-09-26T05:21:19.856Z,8.37
2022-09-26T05:24:05.458Z,8.36
2022-09-26T05:26:42.489Z,8.37
2022-09-26T05:29:11.846Z,8.39
2022-09-26T05:31:40.900Z,8.40
2022-09-26T05:34:15.505Z,8.40
2022-09-26T05:36:44.966Z,8.45
2022-09-26T05:39:26.841Z,8.46
2022-09-26T05:41:56.287Z,8.47
2022-09-26T05:44:24.570Z,8.45
2022-09-26T05:46:52.696Z,8.44
2022-09-26T05:49:20.714Z,8.47
2022-09-26T05:51:48.675Z,8.53
2022-09-26T05:54:16.621Z,8.49
2022-09-26T05:56:44.581Z,8.49
2022-09-26T05:59:14.045Z,8.53
2022-09-26T06:01:42.160Z,8.52
2022-09-26T06:04:10.728Z,8.54
2022-09-26T06:06:38.687Z,8.57
2022-09-26T06:09:07.428Z,8.62
2022-09-26T06:11:35.532Z,8.66
2022-09-26T06:14:03.472Z,8.73
2022-09-26T06:16:33.064Z,8.74
2022-09-26T06:19:03.332Z,8.76
2022-09-26T06:21:32.274Z,8.78
2022-09-26T06:24:00.221Z,8.84
2022-09-26T06:26:28.815Z,8.91
2022-09-26T06:28:58.119Z,8.93
2022-09-26T06:31:26.798Z,9.07
2022-09-26T06:33:56.200Z,9.09
2022-09-26T06:36:25.189Z,9.12
2022-09-26T06:38:54.955Z,9.22
2022-09-26T06:41:23.374Z,9.28
2022-09-26T06:43:51.716Z,9.41
2022-09-26T06:46:20.500Z,9.42
2022-09-26T06:48:48.557Z,9.43
2022-09-26T06:51:17.861Z,9.40
2022-09-26T06:53:45.927Z,9.46
2022-09-26T06:56:14.739Z,9.50
2022-09-26T06:58:42.993Z,9.45
2022-09-26T07:01:11.237Z,9.50
2022-09-26T07:03:45.158Z,9.54
2022-09-26T07:06:13.980Z,9.56
2022-09-26T07:09:01.614Z,9.59
2022-09-26T07:11:45.976Z,9.60
2022-09-26T07:14:18.566Z,9.63
2022-09-26T07:16:46.908Z,9.66
2022-09-26T07:19:16.134Z,9.70
2022-09-26T07:21:44.054Z,9.68
2022-09-26T07:24:14.225Z,9.68
2022-09-26T07:26:42.235Z,9.71
2022-09-26T07:29:10.800Z,9.70
2022-09-26T07:31:38.997Z,9.73
2022-09-26T07:34:08.456Z,9.69
2022-09-26T07:36:36.480Z,9.76
2022-09-26T07:39:04.644Z,9.82
2022-09-26T07:41:33.990Z,9.76
2022-09-26T07:47:07.863Z,9.85
2022-09-26T07:49:53.539Z,9.87
2022-09-26T07:52:22.628Z,9.88
2022-09-26T07:54:50.732Z,9.88
2022-09-26T07:57:20.065Z,9.86
2022-09-26T07:59:50.298Z,9.86
2022-09-26T08:02:26.269Z,9.89
2022-09-26T08:05:00.193Z,9.93
2022-09-26T08:07:29.542Z,10.02
2022-09-26T08:09:58.738Z,10.01
2022-09-26T08:12:28.604Z,10.06
2022-09-26T08:14:56.744Z,10.07
2022-09-26T08:17:24.759Z,10.15
2022-09-26T08:19:52.745Z,10.07
2022-09-26T08:22:20.711Z,10.14
2022-09-26T08:24:50.254Z,10.15
2022-09-26T08:27:19.092Z,10.18
2022-09-26T08:29:49.299Z,10.22
2022-09-26T08:32:17.669Z,10.30
2022-09-26T08:34:45.900Z,10.23
2022-09-26T08:37:14.029Z,10.31
2022-09-26T08:39:41.967Z,10.33
2022-09-26T08:42:28.809Z,10.45
2022-09-26T08:45:38.746Z,10.45
2022-09-26T08:48:15.876Z,10.52
2022-09-26T08:50:49.346Z,10.46
2022-09-26T08:53:21.491Z,10.52
2022-09-26T08:55:52.346Z,10.65
2022-09-26T08:58:28.885Z,10.71
2022-09-26T09:01:02.724Z,10.68
2022-09-26T09:03:35.295Z,10.70
2022-09-26T09:06:07.148Z,10.85
2022-09-26T09:08:39.787Z,11.02
2022-09-26T09:11:22.719Z,11.16
2022-09-26T09:14:05.786Z,11.23
2022-09-26T09:16:45.793Z,11.12
2022-09-26T09:19:22.582Z,11.10
2022-09-26T09:22:04.303Z,11.17
2022-09-26T09:24:49.851Z,11.19
2022-09-26T09:30:20.735Z,11.23
2022-09-26T09:32:55.512Z,11.32
2022-09-26T09:35:39.490Z,11.39
2022-09-26T09:38:11.329Z,11.33
2022-09-26T09:40:42.636Z,11.31
2022-09-26T09:43:17.790Z,11.39
2022-09-26T09:45:49.321Z,11.34
2022-09-26T09:48:18.767Z,11.46
2022-09-26T09:50:56.426Z,11.62
2022-09-26T09:53:40.737Z,11.73
2022-09-26T09:56:17.397Z,11.91
2022-09-26T09:59:03.534Z,12.09
2022-09-26T10:01:36.550Z,11.94
2022-09-26T10:04:12.247Z,11.87
2022-09-26T10:06:45.694Z,12.01
2022-09-26T10:09:38.983Z,12.15
2022-09-26T10:12:14.293Z,12.12
2022-09-26T10:14:47.065Z,12.13
2022-09-26T10:17:20.782Z,12.13
2022-09-26T10:19:50.991Z,12.15
2022-09-26T10:22:25.917Z,12.19
2022-09-26T10:25:00.911Z,12.20
2022-09-26T10:27:36.921Z,12.28
2022-09-26T10:30:12.306Z,12.39
2022-09-26T10:32:46.746Z,12.41
2022-09-26T10:35:20.936Z,12.43
2022-09-26T10:37:58.620Z,12.33
2022-09-26T10:40:47.099Z,12.37
2022-09-26T10:43:28.693Z,12.31
2022-09-26T10:46:03.622Z,12.08
2022-09-26T10:48:48.748Z,12.14
2022-09-26T10:51:22.414Z,12.21
2022-09-26T10:53:53.489Z,12.30
2022-09-26T10:56:26.971Z,12.38
2022-09-26T10:58:59.388Z,12.43
2022-09-26T11:01:31.887Z,12.38
2022-09-26T11:04:12.603Z,12.40
2022-09-26T11:06:45.044Z,12.40
2022-09-26T11:09:20.380Z,12.37
2022-09-26T11:11:50.675Z,12.37
2022-09-26T11:14:28.419Z,12.40
2022-09-26T11:16:58.165Z,12.46
2022-09-26T11:19:34.373Z,12.59
2022-09-26T11:22:12.570Z,12.60
2022-09-26T11:24:47.506Z,12.66
2022-09-26T11:27:25.377Z,12.55
2022-09-26T11:29:59.266Z,12.60
2022-09-26T11:32:31.033Z,12.60
2022-09-26T11:35:03.874Z,12.54
2022-09-26T11:37:55.201Z,12.51
2022-09-26T11:40:44.538Z,12.39
2022-09-26T11:43:32.378Z,12.16
2022-09-26T11:46:15.585Z,12.03
2022-09-26T11:49:00.950Z,11.98
2022-09-26T11:51:46.999Z,11.89
2022-09-26T11:54:32.540Z,11.86
2022-09-26T11:57:12.551Z,11.90
2022-09-26T12:00:02.751Z,12.02
2022-09-26T12:02:47.202Z,11.94
2022-09-26T12:05:27.234Z,11.82
2022-09-26T12:08:09.092Z,11.63
2022-09-26T12:10:46.731Z,11.53
2022-09-26T12:13:34.128Z,11.42
2022-09-26T12:16:12.794Z,11.32
2022-09-26T12:18:52.307Z,11.22
2022-09-26T12:21:32.438Z,11.11
2022-09-26T12:24:11.130Z,11.08
2022-09-26T12:26:51.871Z,11.18
2022-09-26T12:29:37.353Z,11.11
2022-09-26T12:32:25.256Z,11.13
2022-09-26T12:35:08.998Z,11.15
2022-09-26T12:38:09.224Z,11.19
2022-09-26T12:40:43.285Z,11.07
2022-09-26T12:43:46.373Z,11.08
2022-09-26T12:46:31.450Z,11.09
2022-09-26T12:49:15.838Z,11.16
2022-09-26T12:51:48.266Z,11.20
2022-09-26T12:54:43.775Z,11.19
2022-09-26T12:57:22.861Z,11.24
2022-09-26T13:00:20.212Z,11.27
2022-09-26T13:03:18.792Z,11.27
2022-09-26T13:06:19.130Z,11.26
2022-09-26T13:08:58.802Z,11.29
2022-09-26T13:11:37.943Z,11.20
2022-09-26T13:14:21.519Z,11.17
2022-09-26T13:17:06.114Z,11.18
2022-09-26T13:19:38.501Z,11.22
2022-09-26T13:22:22.029Z,11.25
2022-09-26T13:24:55.738Z,11.27
2022-09-26T13:27:28.674Z,11.25
2022-09-26T13:30:03.261Z,11.30
2022-09-26T13:32:38.597Z,11.28
2022-09-26T13:35:14.651Z,11.25
2022-09-26T13:37:56.743Z,11.24
2022-09-26T13:40:39.305Z,11.25
2022-09-26T13:43:24.520Z,11.32
2022-09-26T13:46:03.800Z,11.28
2022-09-26T13:48:42.556Z,11.34
2022-09-26T13:51:19.776Z,11.23
2022-09-26T13:54:00.430Z,11.21
2022-09-26T13:56:49.719Z,11.18
2022-09-26T13:59:35.949Z,11.03
2022-09-26T14:02:25.178Z,10.97
2022-09-26T14:05:18.313Z,10.99
2022-09-26T14:08:09.074Z,10.95
2022-09-26T14:10:39.838Z,10.85
2022-09-26T14:13:21.856Z,10.78
2022-09-26T14:15:59.563Z,10.65
2022-09-26T14:18:45.865Z,10.65
2022-09-26T14:21:37.145Z,10.59
2022-09-26T14:24:29.543Z,10.57
2022-09-26T14:27:28.605Z,10.59
2022-09-26T14:30:01.796Z,10.49
2022-09-26T14:32:37.050Z,10.49
2022-09-26T14:35:17.913Z,10.50
2022-09-26T14:37:50.131Z,10.47
2022-09-26T14:40:29.358Z,10.45
2022-09-26T14:43:01.033Z,10.42
2022-09-26T14:45:44.918Z,10.34
2022-09-26T14:48:20.486Z,10.36
2022-09-26T14:50:53.738Z,10.37
2022-09-26T14:53:30.165Z,10.31
2022-09-26T14:56:01.947Z,10.33
2022-09-26T14:58:51.199Z,10.39
2022-09-26T15:01:26.230Z,10.39
2022-09-26T15:04:02.876Z,10.36
2022-09-26T15:06:37.032Z,10.32
2022-09-26T15:09:12.834Z,10.36
2022-09-26T15:11:45.395Z,10.44
2022-09-26T15:14:22.469Z,10.45
2022-09-26T15:16:54.884Z,10.49
2022-09-26T15:19:29.564Z,10.43
2022-09-26T15:22:01.925Z,10.35
2022-09-26T15:24:33.479Z,10.26
2022-09-26T15:27:08.456Z,10.24
2022-09-26T15:29:37.023Z,10.22
2022-09-26T15:32:07.076Z,10.15
2022-09-26T15:34:38.203Z,10.06
2022-09-26T15:37:16.257Z,10.13
2022-09-26T15:39:45.737Z,10.08
2022-09-26T15:42:46.348Z,10.03
2022-09-26T15:45:30.357Z,10.02
2022-09-26T15:48:00.203Z,9.99
2022-09-26T15:50:34.399Z,9.93
2022-09-26T15:53:08.828Z,9.93
2022-09-26T15:55:46.929Z,9.94
2022-09-26T15:58:18.344Z,9.87
2022-09-26T16:00:50.616Z,9.87
2022-09-26T16:03:31.969Z,9.88
2022-09-26T16:06:00.169Z,9.87
2022-09-26T16:08:30.639Z,9.83
2022-09-26T16:11:01.949Z,9.88
2022-09-26T16:13:36.547Z,9.82
2022-09-26T16:16:07.925Z,9.79
2022-09-26T16:18:39.881Z,9.79
2022-09-26T16:21:20.122Z,9.76
2022-09-26T16:23:50.037Z,9.71
2022-09-26T16:26:31.274Z,9.77
2022-09-26T16:29:00.657Z,9.73
2022-09-26T16:31:32.816Z,9.73
2022-09-26T16:34:01.165Z,9.69
2022-09-26T16:36:31.662Z,9.69
2022-09-26T16:39:02.020Z,9.70
2022-09-26T16:44:34.363Z,9.70
2022-09-26T16:47:05.507Z,9.66
2022-09-26T16:49:48.985Z,9.68
2022-09-26T16:52:27.928Z,9.67
2022-09-26T16:54:57.358Z,9.69
2022-09-26T16:57:30.140Z,9.68
2022-09-26T17:00:15.360Z,9.69
2022-09-26T17:02:43.839Z,9.66
2022-09-26T17:05:18.615Z,9.66
2022-09-26T17:07:48.343Z,9.71
2022-09-26T17:10:18.027Z,9.67
2022-09-26T17:12:51.448Z,9.54
2022-09-26T17:15:29.312Z,9.69
2022-09-26T17:17:58.301Z,9.69
2022-09-26T17:20:26.907Z,9.67
2022-09-26T17:22:55.475Z,9.62
2022-09-26T17:25:25.136Z,9.72
2022-09-26T17:27:59.592Z,9.73
2022-09-26T17:30:27.772Z,9.72
2022-09-26T17:32:55.969Z,9.74
2022-09-26T17:35:26.595Z,9.76
2022-09-26T17:37:55.171Z,9.76
2022-09-26T17:40:26.341Z,9.78
2022-09-26T17:42:57.578Z,9.77
2022-09-26T17:45:30.285Z,9.80
2022-09-26T17:48:00.213Z,9.75
2022-09-26T17:50:31.219Z,9.77
2022-09-26T17:53:01.055Z,9.81
2022-09-26T17:55:29.896Z,9.79
2022-09-26T17:57:59.723Z,9.80
2022-09-26T18:00:38.792Z,9.79
2022-09-26T18:03:09.413Z,9.79
2022-09-26T18:05:39.803Z,9.78
2022-09-26T18:08:17.037Z,9.72
2022-09-26T18:10:50.474Z,9.76
2022-09-26T18:13:25.134Z,9.77
2022-09-26T18:15:54.721Z,9.70
2022-09-26T18:18:25.114Z,9.82
2022-09-26T18:20:54.880Z,9.79
2022-09-26T18:23:25.129Z,9.79
2022-09-26T18:25:55.762Z,9.83
2022-09-26T18:28:25.937Z,9.83
2022-09-26T18:30:58.277Z,9.84
2022-09-26T18:33:28.851Z,9.86
2022-09-26T18:35:57.075Z,9.84
2022-09-26T18:38:25.113Z,9.84
2022-09-26T18:40:55.775Z,9.90
2022-09-26T18:43:31.794Z,9.88
2022-09-26T18:46:00.684Z,9.89
2022-09-26T18:48:32.834Z,9.88
2022-09-26T18:51:01.335Z,9.89
2022-09-26T18:53:36.973Z,9.88
2022-09-26T18:56:23.024Z,9.90
2022-09-26T18:58:52.497Z,9.92
2022-09-26T19:01:27.296Z,9.90
2022-09-26T19:03:56.887Z,9.91
2022-09-26T19:06:29.674Z,9.85
2022-09-26T19:09:00.304Z,9.91
2022-09-26T19:11:31.851Z,9.93
2022-09-26T19:14:07.695Z,9.89
2022-09-26T19:16:35.800Z,9.89
2022-09-26T19:19:03.873Z,9.87
2022-09-26T19:21:36.128Z,9.86
2022-09-26T19:24:07.671Z,9.88
2022-09-26T19:26:39.977Z,9.86
2022-09-26T19:29:14.398Z,9.87
2022-09-26T19:31:43.877Z,9.86
2022-09-26T19:34:14.895Z,9.85
2022-09-26T19:36:43.186Z,9.83
2022-09-26T19:39:14.822Z,9.83
2022-09-26T19:41:43.037Z,9.76
2022-09-26T19:44:12.906Z,9.78
2022-09-26T19:46:42.240Z,9.78
2022-09-26T19:49:17.105Z,9.82
2022-09-26T19:51:45.510Z,9.78
2022-09-26T19:54:17.902Z,9.74
2022-09-26T19:56:46.912Z,9.76
2022-09-26T19:59:17.337Z,9.76
2022-09-26T20:01:47.359Z,9.74
2022-09-26T20:04:17.613Z,9.73
2022-09-26T20:06:45.868Z,9.73
2022-09-26T20:09:19.140Z,9.75
2022-09-26T20:11:47.309Z,9.74
2022-09-26T20:14:25.608Z,9.68
2022-09-26T20:16:56.562Z,9.70
2022-09-26T20:19:31.300Z,9.67
2022-09-26T20:22:01.935Z,9.59
2022-09-26T20:24:32.355Z,9.65
2022-09-26T20:27:02.964Z,9.58
2022-09-26T20:29:52.965Z,9.59
2022-09-26T20:32:21.023Z,9.59
2022-09-26T20:34:49.464Z,9.57
2022-09-26T20:37:19.822Z,9.58
2022-09-26T20:39:48.382Z,9.61
2022-09-26T20:42:19.901Z,9.59
2022-09-26T20:44:51.085Z,9.63
2022-09-26T20:47:21.334Z,9.59
2022-09-26T20:49:55.295Z,9.57
2022-09-26T20:52:25.814Z,9.57
2022-09-26T20:54:55.164Z,9.57
2022-09-26T20:57:23.251Z,9.56
2022-09-26T20:59:52.904Z,9.58
2022-09-26T21:02:27.974Z,9.60
2022-09-26T21:04:56.984Z,9.55
2022-09-26T21:07:25.643Z,9.57
2022-09-26T21:09:53.716Z,9.60
2022-09-26T21:12:21.876Z,9.60
2022-09-26T21:14:49.989Z,9.54
2022-09-26T21:17:22.230Z,9.49
2022-09-26T21:19:51.331Z,9.51
2022-09-26T21:22:27.564Z,9.52
2022-09-26T21:24:55.666Z,9.49
2022-09-26T21:27:33.428Z,9.49
2022-09-26T21:30:02.084Z,9.53
2022-09-26T21:32:31.535Z,9.50
2022-09-26T21:35:03.988Z,9.47
2022-09-26T21:37:32.843Z,9.45
2022-09-26T21:40:01.095Z,9.45
2022-09-26T21:42:29.285Z,9.48
2022-09-26T21:45:01.042Z,9.48
2022-09-26T21:47:29.328Z,9.48
2022-09-26T21:49:58.808Z,9.46
2022-09-26T21:52:31.302Z,9.45
2022-09-26T21:55:01.240Z,9.45
2022-09-26T21:57:32.871Z,9.48
2022-09-26T22:00:01.519Z,9.45
2022-09-26T22:02:29.634Z,9.48
2022-09-26T22:04:59.751Z,9.45
2022-09-26T22:07:27.790Z,9.41
2022-09-26T22:09:55.841Z,9.40
2022-09-26T22:12:23.889Z,9.42
2022-09-26T22:14:51.917Z,9.43
2022-09-26T22:17:20.015Z,9.46
2022-09-26T22:19:48.078Z,9.41
2022-09-26T22:22:17.573Z,9.42
2022-09-26T22:24:45.801Z,9.42
2022-09-26T22:27:13.909Z,9.44
2022-09-26T22:29:42.070Z,9.34
2022-09-26T22:32:10.152Z,9.40
2022-09-26T22:34:38.222Z,9.43
2022-09-26T22:37:06.622Z,9.39
2022-09-26T22:39:36.081Z,9.41
2022-09-26T22:42:04.142Z,9.44
2022-09-26T22:44:32.153Z,9.38
2022-09-26T22:47:00.245Z,9.40
2022-09-26T22:49:28.662Z,9.39
2022-09-26T22:51:56.709Z,9.39
2022-09-26T22:54:24.806Z,9.40
2022-09-26T22:56:54.338Z,9.40
2022-09-26T22:59:25.774Z,9.35
2022-09-26T23:01:55.346Z,9.36
2022-09-26T23:04:23.431Z,9.39
2022-09-26T23:06:51.487Z,9.39
2022-09-26T23:09:19.597Z,9.38
2022-09-26T23:11:47.610Z,9.37
2022-09-26T23:14:17.037Z,9.36
2022-09-26T23:16:45.171Z,9.33
2022-09-26T23:19:13.290Z,9.34
2022-09-26T23:21:42.268Z,9.35
2022-09-26T23:24:10.316Z,9.31
2022-09-26T23:26:38.343Z,9.34
2022-09-26T23:29:06.453Z,9.31
2022-09-26T23:31:36.030Z,9.32
2022-09-26T23:34:04.516Z,9.32
2022-09-26T23:36:32.552Z,9.31
2022-09-26T23:39:00.777Z,9.33
2022-09-26T23:41:28.845Z,9.32
2022-09-26T23:43:57.099Z,9.30
2022-09-26T23:46:25.194Z,9.35
2022-09-26T23:48:54.884Z,9.35
2022-09-26T23:51:23.041Z,9.34
2022-09-26T23:53:51.098Z,9.29
2022-09-26T23:56:19.127Z,9.30
2022-09-26T23:58:47.893Z,9.34
